N737M KADM-KDEN
Flight info
| Callsign | N737M |
|---|---|
| Flight time | 1h 22m |
| Altitude | 40000 |
| Route | DCT MRMAC DCT LBL DCT HALEN NIIXX4 |
| Aircraft | B738/M-SCDE2E3FGHIJ4J5J7M1M3P2RWXYZ/LB1D1 |
Departure
| Time | 2026-04-14 12:58 |
|---|---|
| Airport | Ardmore Municipal Airport (KADM) |
Arrival
| Time | 2026-04-14 14:20 |
|---|---|
| Airport | Denver International Airport (KDEN) |
| Time | Latitude | Longitude | Altitude | Speed | Heading |
|---|---|---|---|---|---|
| 2026-04-14 12:47 | 34.30055 | -97.02612 | 740 ft | 0 kts | 360° |
| 2026-04-14 12:54 | 34.30057 | -97.02612 | 742 ft | 1 kts | 360° |
| 2026-04-14 12:54 | 34.30082 | -97.02609 | 742 ft | 8 kts | 20° |
| 2026-04-14 12:54 | 34.30146 | -97.02540 | 741 ft | 16 kts | 8° |
| 2026-04-14 12:55 | 34.30263 | -97.02536 | 740 ft | 18 kts | 0° |
| 2026-04-14 12:55 | 34.30391 | -97.02535 | 739 ft | 19 kts | 0° |
| 2026-04-14 12:55 | 34.30532 | -97.02533 | 738 ft | 21 kts | 0° |
| 2026-04-14 12:55 | 34.30684 | -97.02531 | 737 ft | 22 kts | 1° |
| 2026-04-14 12:56 | 34.30842 | -97.02528 | 734 ft | 23 kts | 1° |
| 2026-04-14 12:56 | 34.31001 | -97.02524 | 737 ft | 22 kts | 1° |
| 2026-04-14 12:56 | 34.31022 | -97.02527 | 737 ft | 4 kts | 340° |
| 2026-04-14 12:56 | 34.31047 | -97.02601 | 737 ft | 14 kts | 303° |
| 2026-04-14 12:57 | 34.31149 | -97.02728 | 736 ft | 29 kts | 315° |
| 2026-04-14 12:57 | 34.31302 | -97.02907 | 735 ft | 31 kts | 315° |
| 2026-04-14 12:57 | 34.31415 | -97.02987 | 735 ft | 14 kts | 46° |
| 2026-04-14 12:57 | 34.31443 | -97.02889 | 734 ft | 14 kts | 123° |
| 2026-04-14 12:58 | 34.31359 | -97.02789 | 735 ft | 25 kts | 136° |
| 2026-04-14 12:58 | 34.30981 | -97.02343 | 738 ft | 125 kts | 135° |
| 2026-04-14 12:58 | 34.30186 | -97.01385 | 1066 ft | 188 kts | 136° |
| 2026-04-14 12:58 | 34.29252 | -97.00310 | 2476 ft | 175 kts | 150° |
| 2026-04-14 12:59 | 34.28080 | -96.99775 | 3238 ft | 189 kts | 186° |
| 2026-04-14 12:59 | 34.26761 | -97.00294 | 3507 ft | 219 kts | 218° |
| 2026-04-14 12:59 | 34.25839 | -97.01845 | 4210 ft | 239 kts | 248° |
| 2026-04-14 12:59 | 34.25261 | -97.03728 | 5202 ft | 245 kts | 248° |
| 2026-04-14 13:00 | 34.25036 | -97.05787 | 6209 ft | 257 kts | 278° |
| 2026-04-14 13:00 | 34.25831 | -97.07764 | 7172 ft | 269 kts | 303° |
| 2026-04-14 13:00 | 34.27015 | -97.09571 | 8100 ft | 278 kts | 305° |
| 2026-04-14 13:00 | 34.28241 | -97.11409 | 9041 ft | 284 kts | 304° |
| 2026-04-14 13:01 | 34.29477 | -97.13319 | 9976 ft | 291 kts | 303° |
| 2026-04-14 13:01 | 34.30722 | -97.15313 | 10648 ft | 307 kts | 303° |
| 2026-04-14 13:01 | 34.32028 | -97.17479 | 10868 ft | 336 kts | 302° |
| 2026-04-14 13:01 | 34.33451 | -97.19898 | 11216 ft | 357 kts | 302° |
| 2026-04-14 13:02 | 34.34871 | -97.22347 | 12006 ft | 362 kts | 301° |
| 2026-04-14 13:02 | 34.36302 | -97.24844 | 12995 ft | 360 kts | 301° |
| 2026-04-14 13:02 | 34.37724 | -97.27346 | 13942 ft | 362 kts | 301° |
| 2026-04-14 13:02 | 34.39160 | -97.29886 | 14714 ft | 365 kts | 300° |
| 2026-04-14 13:03 | 34.40597 | -97.32439 | 15486 ft | 369 kts | 300° |
| 2026-04-14 13:03 | 34.42046 | -97.35021 | 16262 ft | 372 kts | 300° |
| 2026-04-14 13:03 | 34.43505 | -97.37626 | 17026 ft | 375 kts | 300° |
| 2026-04-14 13:03 | 34.44981 | -97.40262 | 17807 ft | 379 kts | 300° |
| 2026-04-14 13:04 | 34.46445 | -97.42880 | 18526 ft | 382 kts | 299° |
| 2026-04-14 13:04 | 34.47942 | -97.45561 | 19165 ft | 385 kts | 299° |
| 2026-04-14 13:04 | 34.49449 | -97.48260 | 19799 ft | 389 kts | 299° |
| 2026-04-14 13:04 | 34.50970 | -97.50986 | 20416 ft | 392 kts | 298° |
| 2026-04-14 13:05 | 34.52502 | -97.53735 | 21079 ft | 394 kts | 298° |
| 2026-04-14 13:05 | 34.54042 | -97.56500 | 21683 ft | 397 kts | 298° |
| 2026-04-14 13:05 | 34.55596 | -97.59293 | 22247 ft | 401 kts | 298° |
| 2026-04-14 13:05 | 34.57167 | -97.62117 | 22731 ft | 407 kts | 298° |
| 2026-04-14 13:06 | 34.58778 | -97.65024 | 22839 ft | 420 kts | 298° |
| 2026-04-14 13:06 | 34.60428 | -97.68000 | 23106 ft | 428 kts | 298° |
| 2026-04-14 13:06 | 34.62075 | -97.70967 | 23555 ft | 430 kts | 298° |
| 2026-04-14 13:06 | 34.63750 | -97.73983 | 23994 ft | 430 kts | 298° |
| 2026-04-14 13:07 | 34.65406 | -97.76960 | 24941 ft | 416 kts | 298° |
| 2026-04-14 13:07 | 34.67001 | -97.79824 | 26080 ft | 403 kts | 297° |
| 2026-04-14 13:07 | 34.68552 | -97.82621 | 27051 ft | 395 kts | 297° |
| 2026-04-14 13:07 | 34.70072 | -97.85371 | 27926 ft | 390 kts | 297° |
| 2026-04-14 13:08 | 34.71574 | -97.88097 | 28690 ft | 386 kts | 296° |
| 2026-04-14 13:08 | 34.73073 | -97.90824 | 29072 ft | 393 kts | 296° |
| 2026-04-14 13:08 | 34.74613 | -97.93637 | 29167 ft | 406 kts | 296° |
| 2026-04-14 13:08 | 34.76205 | -97.96541 | 29246 ft | 417 kts | 297° |
| 2026-04-14 13:09 | 34.77823 | -97.99483 | 29335 ft | 428 kts | 297° |
| 2026-04-14 13:09 | 34.79494 | -98.02517 | 29455 ft | 437 kts | 297° |
| 2026-04-14 13:09 | 34.81197 | -98.05609 | 29731 ft | 441 kts | 297° |
| 2026-04-14 13:09 | 34.82903 | -98.08708 | 30196 ft | 439 kts | 297° |
| 2026-04-14 13:10 | 34.84697 | -98.11708 | 30695 ft | 441 kts | 303° |
| 2026-04-14 13:10 | 34.86815 | -98.14450 | 31242 ft | 442 kts | 307° |
| 2026-04-14 13:10 | 34.88967 | -98.17096 | 31775 ft | 439 kts | 307° |
| 2026-04-14 13:10 | 34.91112 | -98.19725 | 32243 ft | 436 kts | 306° |
| 2026-04-14 13:11 | 34.93247 | -98.22351 | 32679 ft | 435 kts | 306° |
| 2026-04-14 13:11 | 34.95370 | -98.24977 | 33127 ft | 433 kts | 306° |
| 2026-04-14 13:11 | 34.97471 | -98.27587 | 33634 ft | 430 kts | 305° |
| 2026-04-14 13:11 | 34.99551 | -98.30179 | 34143 ft | 426 kts | 305° |
| 2026-04-14 13:12 | 35.01614 | -98.32758 | 34538 ft | 424 kts | 305° |
| 2026-04-14 13:12 | 35.03667 | -98.35331 | 34861 ft | 424 kts | 304° |
| 2026-04-14 13:12 | 35.05733 | -98.37927 | 35125 ft | 425 kts | 304° |
| 2026-04-14 13:12 | 35.07793 | -98.40515 | 35482 ft | 423 kts | 304° |
| 2026-04-14 13:13 | 35.09808 | -98.43046 | 35884 ft | 420 kts | 304° |
| 2026-04-14 13:13 | 35.11840 | -98.45599 | 36255 ft | 418 kts | 304° |
| 2026-04-14 13:13 | 35.13865 | -98.48147 | 36587 ft | 418 kts | 304° |
| 2026-04-14 13:13 | 35.15890 | -98.50697 | 36907 ft | 417 kts | 304° |
| 2026-04-14 13:14 | 35.17902 | -98.53232 | 37260 ft | 415 kts | 303° |
| 2026-04-14 13:14 | 35.19907 | -98.55761 | 37629 ft | 414 kts | 303° |
| 2026-04-14 13:14 | 35.21912 | -98.58290 | 38013 ft | 411 kts | 303° |
| 2026-04-14 13:14 | 35.23893 | -98.60789 | 38396 ft | 409 kts | 303° |
| 2026-04-14 13:15 | 35.25870 | -98.63288 | 38676 ft | 408 kts | 303° |
| 2026-04-14 13:15 | 35.27847 | -98.65791 | 38867 ft | 409 kts | 303° |
| 2026-04-14 13:15 | 35.29828 | -98.68302 | 39036 ft | 410 kts | 303° |
| 2026-04-14 13:15 | 35.31811 | -98.70817 | 39218 ft | 411 kts | 303° |
| 2026-04-14 13:16 | 35.33773 | -98.73305 | 39440 ft | 411 kts | 303° |
| 2026-04-14 13:16 | 35.35788 | -98.75862 | 39623 ft | 412 kts | 303° |
| 2026-04-14 13:16 | 35.37753 | -98.78356 | 39845 ft | 411 kts | 303° |
| 2026-04-14 13:17 | 35.41750 | -98.83439 | 39940 ft | 415 kts | 303° |
| 2026-04-14 13:17 | 35.45742 | -98.88514 | 39939 ft | 411 kts | 303° |
| 2026-04-14 13:18 | 35.49698 | -98.93549 | 39929 ft | 407 kts | 303° |
| 2026-04-14 13:18 | 35.53584 | -98.98508 | 39908 ft | 404 kts | 303° |
| 2026-04-14 13:19 | 35.57466 | -99.03474 | 39908 ft | 402 kts | 302° |
| 2026-04-14 13:19 | 35.61340 | -99.08438 | 39896 ft | 402 kts | 302° |
| 2026-04-14 13:20 | 35.65239 | -99.13448 | 39901 ft | 409 kts | 302° |
| 2026-04-14 13:20 | 35.69205 | -99.18552 | 39879 ft | 414 kts | 302° |
| 2026-04-14 13:21 | 35.73206 | -99.23695 | 39867 ft | 416 kts | 302° |
| 2026-04-14 13:21 | 35.77215 | -99.28853 | 39867 ft | 417 kts | 302° |
| 2026-04-14 13:22 | 35.81221 | -99.34018 | 39863 ft | 417 kts | 302° |
| 2026-04-14 13:22 | 35.85195 | -99.39152 | 39860 ft | 416 kts | 302° |
| 2026-04-14 13:23 | 35.89185 | -99.44315 | 39875 ft | 415 kts | 302° |
| 2026-04-14 13:23 | 35.93163 | -99.49473 | 39865 ft | 415 kts | 302° |
| 2026-04-14 13:24 | 35.97137 | -99.54633 | 39857 ft | 415 kts | 302° |
| 2026-04-14 13:24 | 36.02430 | -99.61519 | 39870 ft | 415 kts | 302° |
| 2026-04-14 13:25 | 36.06403 | -99.66696 | 39875 ft | 415 kts | 302° |
| 2026-04-14 13:26 | 36.14329 | -99.77050 | 39916 ft | 415 kts | 302° |
| 2026-04-14 13:26 | 36.18290 | -99.82237 | 39915 ft | 415 kts | 302° |
| 2026-04-14 13:27 | 36.22253 | -99.87434 | 39918 ft | 415 kts | 302° |
| 2026-04-14 13:27 | 36.26200 | -99.92618 | 39914 ft | 415 kts | 302° |
| 2026-04-14 13:28 | 36.30164 | -99.97832 | 39903 ft | 416 kts | 302° |
| 2026-04-14 13:28 | 36.34129 | -100.03057 | 39906 ft | 417 kts | 302° |
| 2026-04-14 13:29 | 36.38110 | -100.08314 | 39871 ft | 418 kts | 302° |
| 2026-04-14 13:29 | 36.42088 | -100.13572 | 39843 ft | 418 kts | 302° |
| 2026-04-14 13:30 | 36.46072 | -100.18848 | 39824 ft | 418 kts | 302° |
| 2026-04-14 13:30 | 36.50050 | -100.24127 | 39833 ft | 418 kts | 302° |
| 2026-04-14 13:31 | 36.54004 | -100.29383 | 39825 ft | 419 kts | 302° |
| 2026-04-14 13:31 | 36.57983 | -100.34682 | 39829 ft | 420 kts | 302° |
| 2026-04-14 13:32 | 36.61968 | -100.39996 | 39825 ft | 420 kts | 302° |
| 2026-04-14 13:32 | 36.65948 | -100.45312 | 39827 ft | 420 kts | 302° |
| 2026-04-14 13:33 | 36.69929 | -100.50638 | 39824 ft | 420 kts | 302° |
| 2026-04-14 13:33 | 36.73907 | -100.55969 | 39822 ft | 420 kts | 302° |
| 2026-04-14 13:34 | 36.79851 | -100.63953 | 39842 ft | 421 kts | 301° |
| 2026-04-14 13:35 | 36.83836 | -100.69315 | 39851 ft | 421 kts | 301° |
| 2026-04-14 13:35 | 36.87827 | -100.74693 | 39868 ft | 422 kts | 301° |
| 2026-04-14 13:36 | 36.91811 | -100.80072 | 39888 ft | 422 kts | 301° |
| 2026-04-14 13:36 | 36.95796 | -100.85460 | 39907 ft | 422 kts | 301° |
| 2026-04-14 13:37 | 36.99779 | -100.90856 | 39922 ft | 422 kts | 301° |
| 2026-04-14 13:37 | 37.03763 | -100.96261 | 39919 ft | 422 kts | 301° |
| 2026-04-14 13:38 | 37.07721 | -101.01641 | 39918 ft | 422 kts | 301° |
| 2026-04-14 13:38 | 37.11698 | -101.07054 | 39906 ft | 422 kts | 301° |
| 2026-04-14 13:39 | 37.15666 | -101.12465 | 39884 ft | 421 kts | 301° |
| 2026-04-14 13:39 | 37.19637 | -101.17889 | 39873 ft | 421 kts | 301° |
| 2026-04-14 13:40 | 37.23573 | -101.23274 | 39841 ft | 421 kts | 301° |
| 2026-04-14 13:40 | 37.27526 | -101.28692 | 39803 ft | 421 kts | 301° |
| 2026-04-14 13:41 | 37.31487 | -101.34130 | 39819 ft | 421 kts | 301° |
| 2026-04-14 13:41 | 37.35436 | -101.39559 | 39832 ft | 421 kts | 301° |
| 2026-04-14 13:42 | 37.39383 | -101.44996 | 39833 ft | 421 kts | 301° |
| 2026-04-14 13:42 | 37.43328 | -101.50438 | 39850 ft | 421 kts | 301° |
| 2026-04-14 13:43 | 37.47279 | -101.55900 | 39849 ft | 421 kts | 301° |
| 2026-04-14 13:43 | 37.51197 | -101.61324 | 39878 ft | 421 kts | 301° |
| 2026-04-14 13:44 | 37.55141 | -101.66793 | 39888 ft | 422 kts | 301° |
| 2026-04-14 13:44 | 37.59085 | -101.72271 | 39897 ft | 422 kts | 301° |
| 2026-04-14 13:45 | 37.63037 | -101.77772 | 39894 ft | 423 kts | 302° |
| 2026-04-14 13:45 | 37.66998 | -101.83293 | 39882 ft | 424 kts | 302° |
| 2026-04-14 13:46 | 37.70956 | -101.88819 | 39846 ft | 425 kts | 302° |
| 2026-04-14 13:46 | 37.74920 | -101.94363 | 39814 ft | 425 kts | 302° |
| 2026-04-14 13:47 | 37.78887 | -101.99921 | 39778 ft | 426 kts | 302° |
| 2026-04-14 13:47 | 37.82832 | -102.05458 | 39762 ft | 426 kts | 302° |
| 2026-04-14 13:48 | 37.86804 | -102.11043 | 39743 ft | 427 kts | 302° |
| 2026-04-14 13:48 | 37.90778 | -102.16639 | 39744 ft | 427 kts | 302° |
| 2026-04-14 13:49 | 37.94760 | -102.22257 | 39740 ft | 427 kts | 302° |
| 2026-04-14 13:49 | 37.98731 | -102.27868 | 39752 ft | 427 kts | 302° |
| 2026-04-14 13:50 | 38.02701 | -102.33489 | 39791 ft | 428 kts | 302° |
| 2026-04-14 13:50 | 38.06673 | -102.39123 | 39801 ft | 428 kts | 302° |
| 2026-04-14 13:51 | 38.10619 | -102.44729 | 39836 ft | 428 kts | 302° |
| 2026-04-14 13:51 | 38.14581 | -102.50368 | 39844 ft | 428 kts | 302° |
| 2026-04-14 13:52 | 38.18546 | -102.56022 | 39846 ft | 428 kts | 302° |
| 2026-04-14 13:52 | 38.22512 | -102.61685 | 39856 ft | 429 kts | 302° |
| 2026-04-14 13:53 | 38.26474 | -102.67355 | 39825 ft | 429 kts | 302° |
| 2026-04-14 13:53 | 38.30412 | -102.72999 | 39805 ft | 429 kts | 302° |
| 2026-04-14 13:54 | 38.34373 | -102.78687 | 39793 ft | 429 kts | 302° |
| 2026-04-14 13:54 | 38.38334 | -102.84386 | 39765 ft | 430 kts | 302° |
| 2026-04-14 13:55 | 38.42304 | -102.90107 | 39776 ft | 430 kts | 302° |
| 2026-04-14 13:55 | 38.46273 | -102.95839 | 39766 ft | 431 kts | 302° |
| 2026-04-14 13:56 | 38.50246 | -103.01584 | 39767 ft | 432 kts | 302° |
| 2026-04-14 13:56 | 38.52234 | -103.04465 | 39623 ft | 435 kts | 302° |
| 2026-04-14 13:56 | 38.54243 | -103.07383 | 39146 ft | 437 kts | 302° |
| 2026-04-14 13:56 | 38.56249 | -103.10291 | 38570 ft | 435 kts | 301° |
| 2026-04-14 13:57 | 38.58217 | -103.13143 | 37915 ft | 433 kts | 301° |
| 2026-04-14 13:57 | 38.60209 | -103.16036 | 37245 ft | 432 kts | 301° |
| 2026-04-14 13:57 | 38.62191 | -103.18917 | 36641 ft | 430 kts | 301° |
| 2026-04-14 13:57 | 38.64165 | -103.21791 | 35995 ft | 429 kts | 301° |
| 2026-04-14 13:58 | 38.66133 | -103.24660 | 35324 ft | 429 kts | 301° |
| 2026-04-14 13:58 | 38.68103 | -103.27535 | 34623 ft | 430 kts | 300° |
| 2026-04-14 13:58 | 38.70071 | -103.30413 | 33922 ft | 430 kts | 300° |
| 2026-04-14 13:58 | 38.72044 | -103.33299 | 33116 ft | 431 kts | 300° |
| 2026-04-14 13:59 | 38.74025 | -103.36199 | 32299 ft | 432 kts | 300° |
| 2026-04-14 13:59 | 38.76008 | -103.39104 | 31492 ft | 433 kts | 301° |
| 2026-04-14 13:59 | 38.77994 | -103.42015 | 30672 ft | 435 kts | 301° |
| 2026-04-14 13:59 | 38.79987 | -103.44941 | 29854 ft | 436 kts | 301° |
| 2026-04-14 14:00 | 38.81977 | -103.47859 | 29135 ft | 432 kts | 301° |
| 2026-04-14 14:00 | 38.83949 | -103.50746 | 28490 ft | 427 kts | 301° |
| 2026-04-14 14:00 | 38.85892 | -103.53596 | 27845 ft | 422 kts | 301° |
| 2026-04-14 14:00 | 38.87811 | -103.56417 | 27232 ft | 417 kts | 301° |
| 2026-04-14 14:01 | 38.89680 | -103.59170 | 26626 ft | 412 kts | 301° |
| 2026-04-14 14:01 | 38.91554 | -103.61937 | 26018 ft | 409 kts | 301° |
| 2026-04-14 14:01 | 38.93409 | -103.64677 | 25439 ft | 405 kts | 301° |
| 2026-04-14 14:01 | 38.95249 | -103.67397 | 24866 ft | 403 kts | 301° |
| 2026-04-14 14:02 | 38.97102 | -103.70149 | 24298 ft | 409 kts | 301° |
| 2026-04-14 14:02 | 38.98969 | -103.72921 | 23680 ft | 409 kts | 302° |
| 2026-04-14 14:02 | 39.00830 | -103.75677 | 23023 ft | 407 kts | 303° |
| 2026-04-14 14:02 | 39.02677 | -103.78410 | 22364 ft | 402 kts | 303° |
| 2026-04-14 14:03 | 39.04504 | -103.81117 | 21740 ft | 398 kts | 303° |
| 2026-04-14 14:03 | 39.06310 | -103.83798 | 21138 ft | 393 kts | 303° |
| 2026-04-14 14:03 | 39.08093 | -103.86451 | 20585 ft | 389 kts | 303° |
| 2026-04-14 14:03 | 39.09844 | -103.89053 | 20274 ft | 378 kts | 303° |
| 2026-04-14 14:04 | 39.11537 | -103.91566 | 20106 ft | 364 kts | 303° |
| 2026-04-14 14:04 | 39.13171 | -103.93991 | 19726 ft | 358 kts | 304° |
| 2026-04-14 14:04 | 39.14815 | -103.96395 | 19225 ft | 357 kts | 304° |
| 2026-04-14 14:04 | 39.16452 | -103.98766 | 18739 ft | 355 kts | 305° |
| 2026-04-14 14:05 | 39.18094 | -104.01144 | 18275 ft | 353 kts | 305° |
| 2026-04-14 14:05 | 39.19721 | -104.03503 | 17762 ft | 351 kts | 306° |
| 2026-04-14 14:05 | 39.21337 | -104.05851 | 17247 ft | 348 kts | 306° |
| 2026-04-14 14:05 | 39.22938 | -104.08179 | 16745 ft | 345 kts | 306° |
| 2026-04-14 14:06 | 39.24519 | -104.10483 | 16301 ft | 342 kts | 306° |
| 2026-04-14 14:06 | 39.26052 | -104.12715 | 16154 ft | 331 kts | 306° |
| 2026-04-14 14:06 | 39.27553 | -104.14900 | 16008 ft | 320 kts | 306° |
| 2026-04-14 14:06 | 39.29007 | -104.17020 | 15874 ft | 310 kts | 306° |
| 2026-04-14 14:07 | 39.30182 | -104.19251 | 15665 ft | 294 kts | 288° |
| 2026-04-14 14:07 | 39.30713 | -104.21761 | 15357 ft | 287 kts | 278° |
| 2026-04-14 14:07 | 39.31109 | -104.24294 | 15006 ft | 289 kts | 277° |
| 2026-04-14 14:07 | 39.31499 | -104.26865 | 14676 ft | 294 kts | 278° |
| 2026-04-14 14:08 | 39.31899 | -104.29479 | 14323 ft | 298 kts | 278° |
| 2026-04-14 14:08 | 39.32307 | -104.32096 | 13985 ft | 297 kts | 278° |
| 2026-04-14 14:08 | 39.32720 | -104.34717 | 13633 ft | 296 kts | 278° |
| 2026-04-14 14:08 | 39.33126 | -104.37286 | 13368 ft | 292 kts | 278° |
| 2026-04-14 14:09 | 39.33528 | -104.39816 | 13219 ft | 284 kts | 278° |
| 2026-04-14 14:09 | 39.33919 | -104.42282 | 13075 ft | 276 kts | 279° |
| 2026-04-14 14:09 | 39.34300 | -104.44687 | 12870 ft | 272 kts | 279° |
| 2026-04-14 14:09 | 39.34674 | -104.47076 | 12581 ft | 270 kts | 280° |
| 2026-04-14 14:10 | 39.35047 | -104.49456 | 12305 ft | 269 kts | 280° |
| 2026-04-14 14:10 | 39.35414 | -104.51799 | 12191 ft | 262 kts | 280° |
| 2026-04-14 14:10 | 39.35770 | -104.54078 | 12064 ft | 256 kts | 280° |
| 2026-04-14 14:10 | 39.36120 | -104.56315 | 11947 ft | 254 kts | 280° |
| 2026-04-14 14:11 | 39.36469 | -104.58555 | 11877 ft | 255 kts | 280° |
| 2026-04-14 14:11 | 39.36913 | -104.60784 | 11860 ft | 257 kts | 286° |
| 2026-04-14 14:11 | 39.37452 | -104.62980 | 11868 ft | 256 kts | 287° |
| 2026-04-14 14:11 | 39.38078 | -104.65127 | 11912 ft | 257 kts | 301° |
| 2026-04-14 14:12 | 39.39341 | -104.66772 | 11673 ft | 265 kts | 327° |
| 2026-04-14 14:12 | 39.40398 | -104.67585 | 11456 ft | 267 kts | 330° |
| 2026-04-14 14:12 | 39.42595 | -104.69054 | 10993 ft | 267 kts | 345° |
| 2026-04-14 14:12 | 39.44406 | -104.69258 | 10703 ft | 257 kts | 4° |
| 2026-04-14 14:13 | 39.45604 | -104.69198 | 10505 ft | 253 kts | 4° |
| 2026-04-14 14:13 | 39.47350 | -104.69162 | 10223 ft | 248 kts | 3° |
| 2026-04-14 14:13 | 39.49029 | -104.69149 | 10027 ft | 239 kts | 3° |
| 2026-04-14 14:13 | 39.50643 | -104.69134 | 9965 ft | 224 kts | 3° |
| 2026-04-14 14:14 | 39.52151 | -104.69117 | 9959 ft | 211 kts | 4° |
| 2026-04-14 14:14 | 39.53609 | -104.69098 | 9994 ft | 209 kts | 4° |
| 2026-04-14 14:14 | 39.55072 | -104.69080 | 9988 ft | 210 kts | 4° |
| 2026-04-14 14:14 | 39.56538 | -104.69063 | 9979 ft | 210 kts | 4° |
| 2026-04-14 14:15 | 39.58000 | -104.69046 | 9977 ft | 210 kts | 4° |
| 2026-04-14 14:15 | 39.59465 | -104.69029 | 9774 ft | 213 kts | 4° |
| 2026-04-14 14:15 | 39.60958 | -104.69011 | 9575 ft | 215 kts | 4° |
| 2026-04-14 14:15 | 39.62443 | -104.68995 | 9367 ft | 212 kts | 4° |
| 2026-04-14 14:16 | 39.63902 | -104.68979 | 9162 ft | 207 kts | 4° |
| 2026-04-14 14:16 | 39.65329 | -104.68962 | 8977 ft | 204 kts | 3° |
| 2026-04-14 14:16 | 39.66748 | -104.68945 | 8780 ft | 205 kts | 3° |
| 2026-04-14 14:17 | 39.69505 | -104.68915 | 8321 ft | 186 kts | 3° |
| 2026-04-14 14:17 | 39.70725 | -104.68902 | 8117 ft | 166 kts | 3° |
| 2026-04-14 14:17 | 39.71861 | -104.68888 | 7911 ft | 162 kts | 3° |
| 2026-04-14 14:17 | 39.72977 | -104.68810 | 7731 ft | 158 kts | 12° |
| 2026-04-14 14:18 | 39.74019 | -104.68414 | 7581 ft | 156 kts | 23° |
| 2026-04-14 14:18 | 39.75003 | -104.67803 | 7371 ft | 157 kts | 30° |
| 2026-04-14 14:18 | 39.75938 | -104.67085 | 7136 ft | 154 kts | 32° |
| 2026-04-14 14:18 | 39.76869 | -104.66401 | 6840 ft | 154 kts | 24° |
| 2026-04-14 14:19 | 39.77914 | -104.66106 | 6633 ft | 153 kts | 2° |
| 2026-04-14 14:19 | 39.78950 | -104.66092 | 6405 ft | 146 kts | 0° |
| 2026-04-14 14:19 | 39.79967 | -104.66085 | 6129 ft | 146 kts | 1° |
| 2026-04-14 14:19 | 39.80972 | -104.66077 | 5865 ft | 147 kts | 1° |
| 2026-04-14 14:20 | 39.81985 | -104.66059 | 5635 ft | 143 kts | 1° |
| 2026-04-14 14:20 | 39.82951 | -104.66063 | 5386 ft | 132 kts | 2° |
| 2026-04-14 14:20 | 39.83733 | -104.66038 | 5362 ft | 81 kts | 1° |
| 2026-04-14 14:20 | 39.84123 | -104.66030 | 5364 ft | 26 kts | 352° |
| 2026-04-14 14:21 | 39.84106 | -104.66120 | 5364 ft | 15 kts | 210° |
| 2026-04-14 14:21 | 39.84017 | -104.66200 | 5363 ft | 16 kts | 239° |
| 2026-04-14 14:21 | 39.84003 | -104.66349 | 5363 ft | 17 kts | 232° |
| 2026-04-14 14:21 | 39.83882 | -104.66368 | 5364 ft | 18 kts | 180° |
| 2026-04-14 14:22 | 39.83814 | -104.66439 | 5365 ft | 14 kts | 270° |
| 2026-04-14 14:22 | 39.83864 | -104.66517 | 5363 ft | 7 kts | 359° |
| 2026-04-14 14:22 | 39.83880 | -104.66517 | 5363 ft | 0 kts | 359° |